Time;durP1;ratioP1;P1;durP2;ratioP2;P2;SDS_P1;SDS_P2;PMS_P1;PMS_P2;Temp;Humidity;BMP_temperature;BMP_pressure;BME280_temperature;BME280_humidity;BME280_pressure;Samples;Min_cycle;Max_cycle;Signal;HPM_P1;HPM_P2
2023/04/04 00:01:27;;;;;;;6.55;4.10;;;25.40;99.90;;;;;;5095613;28;20044;-53
2023/04/04 00:03:53;;;;;;;8.13;4.15;;;25.40;99.90;;;;;;5094468;28;20027;-53
2023/04/04 00:06:19;;;;;;;8.13;4.90;;;25.40;99.90;;;;;;5094460;28;20020;-53
2023/04/04 00:08:45;;;;;;;7.72;4.20;;;25.40;99.90;;;;;;5092885;28;20042;-53
2023/04/04 00:11:12;;;;;;;7.28;4.32;;;25.40;99.90;;;;;;5095974;28;20028;-53
2023/04/04 00:13:38;;;;;;;6.30;4.23;;;25.40;99.90;;;;;;5094146;28;20107;-53
2023/04/04 00:16:04;;;;;;;7.25;4.18;;;25.30;99.90;;;;;;5107200;28;20025;-54
2023/04/04 00:18:31;;;;;;;7.97;4.53;;;25.40;99.90;;;;;;5114406;28;20497;-54
2023/04/04 00:20:57;;;;;;;8.45;4.45;;;25.30;99.90;;;;;;5114346;28;20020;-54
2023/04/04 00:23:23;;;;;;;6.90;4.60;;;25.30;99.90;;;;;;5114348;28;20072;-54
2023/04/04 00:25:53;;;;;;;7.65;4.80;;;25.30;99.90;;;;;;5097975;28;20024;-53
2023/04/04 00:28:20;;;;;;;7.35;4.50;;;25.30;99.90;;;;;;5107221;28;20033;-53
2023/04/04 00:30:46;;;;;;;8.55;4.85;;;25.30;99.90;;;;;;5100126;28;20544;-55
2023/04/04 00:33:12;;;;;;;6.95;4.95;;;25.20;99.90;;;;;;5092394;28;20036;-52
2023/04/04 00:35:38;;;;;;;9.18;4.95;;;25.20;99.90;;;;;;5107228;28;20031;-55
2023/04/04 00:38:04;;;;;;;10.13;5.82;;;25.30;99.90;;;;;;5114128;28;20164;-54
2023/04/04 00:40:30;;;;;;;11.77;4.97;;;25.20;99.90;;;;;;5114229;28;20023;-54
2023/04/04 00:42:59;;;;;;;8.70;4.53;;;25.20;99.90;;;;;;5113887;28;20044;-53
2023/04/04 00:45:26;;;;;;;7.53;5.13;;;25.20;99.90;;;;;;5113907;28;20020;-53
2023/04/04 00:47:54;;;;;;;9.93;5.63;;;25.20;99.90;;;;;;5113997;28;20372;-53
2023/04/04 00:50:19;;;;;;;;;;;25.10;99.90;;;;;;5114392;28;20031;-53
2023/04/04 00:52:45;;;;;;;7.38;4.65;;;25.20;99.90;;;;;;5118645;27;20302;-53
2023/04/04 00:55:11;;;;;;;9.23;5.13;;;25.20;99.90;;;;;;5122499;27;20097;-51
2023/04/04 00:57:37;;;;;;;9.50;5.13;;;25.10;99.90;;;;;;5099794;28;20023;-54
2023/04/04 01:00:05;;;;;;;8.93;5.00;;;25.10;99.90;;;;;;5113864;28;20124;-55
2023/04/04 01:02:31;;;;;;;;;;;25.10;99.90;;;;;;5108649;28;20016;-53
2023/04/04 01:04:57;;;;;;;9.57;5.10;;;25.10;99.90;;;;;;5102819;28;19950;-53
2023/04/04 01:07:23;;;;;;;10.25;4.97;;;25.10;99.90;;;;;;5113438;28;20084;-53
2023/04/04 01:09:49;;;;;;;10.43;5.22;;;25.10;99.90;;;;;;5113322;28;20072;-53
2023/04/04 01:12:15;;;;;;;9.00;5.15;;;25.10;99.90;;;;;;5112936;28;20055;-52
2023/04/04 01:14:40;;;;;;;9.60;5.40;;;25.10;99.90;;;;;;5113413;28;20054;-53
2023/04/04 01:17:07;;;;;;;8.95;4.78;;;25.00;99.90;;;;;;5113145;28;20425;-52
2023/04/04 01:19:52;;;;;;;8.70;5.32;;;25.00;99.90;;;;;;5129218;27;20031;-53
2023/04/04 01:22:19;;;;;;;14.98;5.05;;;25.00;99.90;;;;;;5113139;28;20058;-53
2023/04/04 01:24:47;;;;;;;9.60;5.38;;;25.00;99.90;;;;;;5113109;28;20024;-53
2023/04/04 01:27:13;;;;;;;;;;;25.00;99.90;;;;;;5113541;28;20039;-52
2023/04/04 01:29:39;;;;;;;11.25;5.18;;;25.00;99.90;;;;;;5112923;28;19912;-52
2023/04/04 01:32:15;;;;;;;9.45;4.90;;;25.00;99.90;;;;;;5113157;28;20030;-52
2023/04/04 01:34:56;;;;;;;9.90;4.97;;;25.00;99.90;;;;;;5126533;27;20467;-53
2023/04/04 01:37:59;;;;;;;11.82;5.00;;;25.00;99.90;;;;;;5113112;28;20024;-52
2023/04/04 01:40:33;;;;;;;6.38;4.30;;;25.00;99.90;;;;;;5100866;28;20106;-53
2023/04/04 01:43:00;;;;;;;9.13;4.57;;;25.00;99.90;;;;;;5112750;28;20473;-53
2023/04/04 01:45:27;;;;;;;10.60;5.38;;;25.00;99.90;;;;;;5113076;28;20023;-52
2023/04/04 01:47:52;;;;;;;9.48;4.72;;;24.90;99.90;;;;;;5111614;28;20027;-54
2023/04/04 01:50:18;;;;;;;7.50;4.32;;;24.90;99.90;;;;;;5112711;28;20054;-52
2023/04/04 01:52:44;;;;;;;7.00;4.43;;;24.90;99.90;;;;;;5112759;28;20079;-54
2023/04/04 01:55:10;;;;;;;7.60;4.72;;;24.90;99.90;;;;;;5112205;28;20076;-53
2023/04/04 01:57:36;;;;;;;7.38;4.63;;;24.90;99.90;;;;;;5112849;28;20103;-53
2023/04/04 02:00:02;;;;;;;11.35;4.47;;;24.90;99.90;;;;;;5116269;22;20518;-48
2023/04/04 02:02:28;;;;;;;9.30;5.18;;;24.90;99.90;;;;;;5092352;28;20047;-48
2023/04/04 02:04:54;;;;;;;6.47;3.92;;;24.90;99.90;;;;;;5092151;28;20023;-48
2023/04/04 02:07:20;;;;;;;7.13;3.95;;;24.90;99.90;;;;;;5074033;28;20023;-48
2023/04/04 02:09:45;;;;;;;7.97;4.32;;;24.90;99.90;;;;;;5091665;28;20035;-47
2023/04/04 02:12:11;;;;;;;6.28;4.00;;;24.90;99.90;;;;;;5092211;28;20016;-48
2023/04/04 02:14:37;;;;;;;8.32;4.15;;;24.80;99.90;;;;;;5091998;28;20107;-48
2023/04/04 02:17:03;;;;;;;9.70;4.32;;;24.90;99.90;;;;;;5092012;28;20440;-48
2023/04/04 02:19:29;;;;;;;7.13;3.75;;;24.80;99.90;;;;;;5092120;28;20114;-47
2023/04/04 02:21:55;;;;;;;8.82;3.85;;;24.80;99.90;;;;;;5091956;28;20016;-48
2023/04/04 02:24:21;;;;;;;8.05;4.32;;;24.80;99.90;;;;;;5073724;28;20043;-48
2023/04/04 02:26:47;;;;;;;5.43;3.78;;;24.80;99.90;;;;;;5092016;28;20024;-48
2023/04/04 02:29:13;;;;;;;7.35;4.13;;;24.80;99.90;;;;;;5092043;28;20495;-48
2023/04/04 02:31:39;;;;;;;8.02;4.03;;;24.80;99.90;;;;;;5091922;28;20031;-50
2023/04/04 02:34:04;;;;;;;4.90;3.70;;;24.80;99.90;;;;;;5073742;28;20432;-48
2023/04/04 02:36:30;;;;;;;6.57;3.53;;;24.70;99.90;;;;;;5091994;28;20018;-48
2023/04/04 02:38:56;;;;;;;6.38;4.03;;;24.80;99.90;;;;;;5091907;28;20138;-48
2023/04/04 02:41:22;;;;;;;5.97;3.35;;;24.80;99.90;;;;;;5091543;28;20065;-48
2023/04/04 02:43:48;;;;;;;7.25;3.60;;;24.80;99.90;;;;;;5092041;28;20016;-47
2023/04/04 02:46:13;;;;;;;5.25;3.55;;;24.80;99.90;;;;;;5091881;28;20023;-48
2023/04/04 02:48:39;;;;;;;8.65;3.80;;;24.70;99.90;;;;;;5091580;28;20036;-48
2023/04/04 02:51:05;;;;;;;5.97;3.50;;;24.70;99.90;;;;;;5073397;28;20024;-48
2023/04/04 02:53:31;;;;;;;5.90;3.33;;;24.70;99.90;;;;;;5091475;28;20024;-48
2023/04/04 02:55:57;;;;;;;5.03;3.20;;;24.70;99.90;;;;;;5091851;28;20020;-48
2023/04/04 02:58:23;;;;;;;7.40;3.70;;;24.70;99.90;;;;;;5091347;28;20380;-48
2023/04/04 03:00:54;;;;;;;4.45;3.00;;;24.70;99.90;;;;;;5091965;28;20131;-48
2023/04/04 03:03:20;;;;;;;6.22;3.13;;;24.70;99.90;;;;;;5091178;28;20024;-48
2023/04/04 03:05:48;;;;;;;5.80;3.40;;;24.70;99.90;;;;;;5091839;28;20353;-47
2023/04/04 03:08:14;;;;;;;;;;;24.70;99.90;;;;;;5076620;28;20024;-48
2023/04/04 03:10:40;;;;;;;4.25;2.60;;;24.70;99.90;;;;;;5095522;28;19908;-48
2023/04/04 03:13:06;;;;;;;4.78;2.97;;;24.70;99.90;;;;;;5095035;28;20030;-48
2023/04/04 03:15:33;;;;;;;5.57;3.00;;;24.70;99.90;;;;;;5095337;28;20099;-48
2023/04/04 03:17:59;;;;;;;3.50;2.95;;;24.70;99.90;;;;;;5095200;28;20031;-47
2023/04/04 03:20:25;;;;;;;4.18;2.70;;;24.60;99.90;;;;;;5095210;28;20032;-47
2023/04/04 03:22:51;;;;;;;5.70;3.13;;;24.60;99.90;;;;;;5076897;28;20080;-47
2023/04/04 03:25:17;;;;;;;5.90;3.00;;;24.70;99.90;;;;;;5095375;28;20012;-47
2023/04/04 03:27:43;;;;;;;6.18;3.40;;;24.60;99.90;;;;;;5095011;28;20023;-47
2023/04/04 03:30:09;;;;;;;5.93;3.13;;;24.60;99.90;;;;;;5094935;28;20487;-47
2023/04/04 03:32:38;;;;;;;3.92;2.60;;;24.60;99.90;;;;;;5094946;28;20020;-48
2023/04/04 03:35:04;;;;;;;4.40;2.78;;;24.60;99.90;;;;;;5094855;28;20016;-49
2023/04/04 03:37:30;;;;;;;4.82;2.10;;;24.60;99.90;;;;;;5094814;28;20073;-48
2023/04/04 03:39:56;;;;;;;4.80;2.60;;;24.60;99.90;;;;;;5094754;28;20115;-48
2023/04/04 03:42:22;;;;;;;3.47;2.42;;;24.60;99.90;;;;;;5094531;28;20476;-48
2023/04/04 03:44:48;;;;;;;4.00;2.50;;;24.60;99.90;;;;;;5094796;28;20117;-48
2023/04/04 03:47:13;;;;;;;3.72;2.22;;;24.60;99.90;;;;;;5094571;28;20020;-48
2023/04/04 03:49:39;;;;;;;3.90;2.50;;;24.50;99.90;;;;;;5076175;28;20040;-48
2023/04/04 03:52:05;;;;;;;3.60;2.35;;;24.50;99.90;;;;;;5094571;28;20027;-48
2023/04/04 03:54:32;;;;;;;3.72;2.30;;;24.50;99.90;;;;;;5059548;28;20031;-48
2023/04/04 03:56:57;;;;;;;4.65;2.72;;;24.50;99.90;;;;;;5094559;28;20107;-48
2023/04/04 03:59:23;;;;;;;3.75;2.75;;;24.50;99.90;;;;;;5107468;22;20115;-54
2023/04/04 04:01:49;;;;;;;2.92;2.10;;;24.50;99.90;;;;;;5114842;28;20044;-54
2023/04/04 04:04:15;;;;;;;4.07;2.05;;;24.50;99.90;;;;;;5115117;28;20032;-54
2023/04/04 04:06:41;;;;;;;5.03;2.17;;;24.50;99.90;;;;;;5114568;28;20023;-54
2023/04/04 04:09:08;;;;;;;3.38;2.35;;;24.50;99.90;;;;;;5114781;28;20472;-54
2023/04/04 04:11:34;;;;;;;3.83;2.15;;;24.50;99.90;;;;;;5100725;28;20028;-56
2023/04/04 04:13:59;;;;;;;2.88;2.03;;;24.50;99.90;;;;;;5114566;28;20467;-54
2023/04/04 04:16:26;;;;;;;3.28;1.85;;;24.50;99.90;;;;;;5114275;28;20020;-54
2023/04/04 04:18:52;;;;;;;2.72;1.63;;;24.50;99.90;;;;;;5114114;28;20050;-53
2023/04/04 04:21:18;;;;;;;4.32;1.90;;;24.50;99.90;;;;;;5114325;28;20028;-53
2023/04/04 04:23:44;;;;;;;3.25;1.63;;;24.40;99.90;;;;;;5114334;28;20361;-54
2023/04/04 04:26:10;;;;;;;4.28;2.72;;;24.50;99.90;;;;;;5114367;28;20019;-55
2023/04/04 04:28:35;;;;;;;4.03;1.90;;;24.40;99.90;;;;;;5114219;28;20073;-53
2023/04/04 04:31:09;;;;;;;4.38;2.20;;;24.40;99.90;;;;;;5114209;28;20472;-53
2023/04/04 04:33:35;;;;;;;5.38;2.72;;;24.40;99.90;;;;;;5114098;28;20141;-54
2023/04/04 04:36:02;;;;;;;3.17;1.55;;;24.40;99.90;;;;;;5103009;28;20483;-54
2023/04/04 04:38:29;;;;;;;3.60;1.90;;;24.40;99.90;;;;;;5109378;28;20030;-54
2023/04/04 04:40:55;;;;;;;3.47;1.55;;;24.40;99.90;;;;;;5103303;28;20020;-54
2023/04/04 04:43:21;;;;;;;4.95;2.38;;;24.40;99.90;;;;;;5114037;28;20023;-55
2023/04/04 04:45:47;;;;;;;3.47;1.77;;;24.40;99.90;;;;;;5113800;28;20024;-53
2023/04/04 04:48:15;;;;;;;6.28;2.10;;;24.40;99.90;;;;;;5113639;28;20077;-53
2023/04/04 04:50:43;;;;;;;2.67;1.67;;;24.40;99.90;;;;;;5114062;28;20020;-53
2023/04/04 04:53:09;;;;;;;4.88;1.85;;;24.40;99.90;;;;;;5113829;28;20106;-53
2023/04/04 04:55:35;;;;;;;3.90;1.40;;;24.40;99.90;;;;;;5112668;28;20036;-54
2023/04/04 04:58:03;;;;;;;4.68;1.80;;;24.40;99.90;;;;;;5125917;27;20022;-53
2023/04/04 05:00:28;;;;;;;;;;;24.40;99.90;;;;;;5115335;27;20047;-53
2023/04/04 05:02:55;;;;;;;2.97;1.50;;;24.40;99.90;;;;;;5112668;28;20363;-52
2023/04/04 05:05:21;;;;;;;3.57;1.67;;;24.40;99.90;;;;;;5113815;28;20015;-53
2023/04/04 05:07:48;;;;;;;6.15;1.77;;;24.40;99.90;;;;;;5113429;28;20347;-53
2023/04/04 05:13:36;;;;;;;2.38;1.33;;;24.30;99.90;;;;;;5113410;28;20115;-54
2023/04/04 05:16:02;;;;;;;2.45;1.30;;;24.30;99.90;;;;;;5113415;28;20024;-54
2023/04/04 05:18:28;;;;;;;3.13;2.08;;;24.30;99.90;;;;;;5111915;28;20027;-53
2023/04/04 05:20:54;;;;;;;2.80;1.50;;;24.30;99.90;;;;;;5113594;28;20495;-53
2023/04/04 05:23:20;;;;;;;2.75;1.63;;;24.30;99.90;;;;;;5112999;28;20454;-54
2023/04/04 05:25:49;;;;;;;3.78;1.52;;;24.30;99.90;;;;;;5111837;28;20104;-54
2023/04/04 05:28:15;;;;;;;3.30;1.48;;;24.30;99.90;;;;;;5110490;28;20019;-53
2023/04/04 05:30:41;;;;;;;2.40;1.55;;;24.30;99.90;;;;;;5101719;28;20524;-53
2023/04/04 05:33:06;;;;;;;2.78;1.88;;;24.30;99.90;;;;;;5112748;28;20373;-53
2023/04/04 05:35:32;;;;;;;4.22;1.52;;;24.30;99.90;;;;;;5121019;27;20027;-53
2023/04/04 05:37:58;;;;;;;2.78;1.35;;;24.30;99.90;;;;;;5118677;27;20028;-54
2023/04/04 05:40:24;;;;;;;2.15;1.45;;;24.30;99.90;;;;;;5113098;28;20031;-53
2023/04/04 05:42:56;;;;;;;3.08;1.30;;;24.30;99.90;;;;;;5100063;28;20027;-53
2023/04/04 05:45:22;;;;;;;3.35;1.90;;;24.30;99.90;;;;;;5099822;28;20054;-53
2023/04/04 05:47:48;;;;;;;2.80;1.63;;;24.30;99.90;;;;;;5112707;28;20055;-54
2023/04/04 05:50:14;;;;;;;5.35;1.55;;;24.30;99.90;;;;;;5112684;28;20030;-53
2023/04/04 05:52:40;;;;;;;3.72;2.10;;;24.20;99.90;;;;;;5112654;28;20542;-54
2023/04/04 05:55:06;;;;;;;2.63;1.65;;;24.20;99.90;;;;;;5116342;27;20098;-54
2023/04/04 05:57:32;;;;;;;2.00;1.52;;;24.20;99.90;;;;;;5111535;27;20084;-55
2023/04/04 05:59:58;;;;;;;6.55;1.80;;;24.20;99.90;;;;;;5096201;28;20110;-54
2023/04/04 06:02:24;;;;;;;3.38;1.65;;;24.20;99.90;;;;;;5112779;28;20023;-55
2023/04/04 06:04:50;;;;;;;3.25;1.77;;;24.20;99.90;;;;;;5112409;28;20023;-54
2023/04/04 06:07:15;;;;;;;6.18;1.77;;;24.20;99.90;;;;;;5112617;28;20039;-54
2023/04/04 06:09:42;;;;;;;7.72;1.80;;;24.20;99.90;;;;;;5112335;28;20031;-54
2023/04/04 06:12:08;;;;;;;3.38;1.60;;;24.20;99.90;;;;;;5112546;28;20023;-54
2023/04/04 06:14:37;;;;;;;6.05;2.13;;;24.20;99.90;;;;;;5112547;28;20023;-54
2023/04/04 06:17:04;;;;;;;5.22;1.90;;;24.20;99.90;;;;;;5098753;28;20020;-54
2023/04/04 06:19:30;;;;;;;3.83;1.83;;;24.20;99.90;;;;;;5112234;28;20028;-54
2023/04/04 06:21:56;;;;;;;5.10;2.28;;;24.20;99.90;;;;;;5107538;28;20027;-54
2023/04/04 06:24:21;;;;;;;3.75;1.92;;;24.20;99.90;;;;;;5103873;28;20040;-54
2023/04/04 06:26:50;;;;;;;3.50;2.13;;;24.20;99.90;;;;;;5112133;28;20024;-53
2023/04/04 06:29:17;;;;;;;3.38;1.70;;;24.10;99.90;;;;;;5112091;28;20039;-55
2023/04/04 06:31:43;;;;;;;4.85;2.35;;;24.20;99.90;;;;;;5112216;28;20012;-54
2023/04/04 06:34:09;;;;;;;3.80;1.65;;;24.10;99.90;;;;;;5112242;28;20020;-53
2023/04/04 06:36:35;;;;;;;4.88;2.53;;;24.10;99.90;;;;;;5112185;28;20027;-54
2023/04/04 06:39:01;;;;;;;3.03;1.73;;;24.10;99.90;;;;;;5112067;28;20038;-54
2023/04/04 06:41:26;;;;;;;3.83;1.92;;;24.10;99.90;;;;;;5113218;28;20027;-54
2023/04/04 06:43:53;;;;;;;6.15;2.10;;;24.10;99.90;;;;;;5102528;27;20027;-53
2023/04/04 06:46:18;;;;;;;3.30;2.05;;;24.10;99.90;;;;;;5115747;28;20019;-54
2023/04/04 06:48:44;;;;;;;7.30;2.03;;;24.10;99.90;;;;;;5115091;28;20133;-54
2023/04/04 06:51:10;;;;;;;4.38;1.98;;;24.10;99.90;;;;;;5116168;28;20395;-55
2023/04/04 06:53:36;;;;;;;2.70;1.67;;;24.10;99.90;;;;;;5115888;28;20363;-54
2023/04/04 06:56:03;;;;;;;4.68;1.73;;;24.10;99.90;;;;;;5104798;28;20032;-54
2023/04/04 06:58:29;;;;;;;4.50;2.10;;;24.10;99.90;;;;;;5113795;28;20024;-53
2023/04/04 07:00:58;;;;;;;5.78;2.33;;;24.10;99.90;;;;;;5114545;28;20050;-55
2023/04/04 07:03:24;;;;;;;3.67;2.03;;;24.10;99.90;;;;;;5114301;28;20098;-54
2023/04/04 07:05:50;;;;;;;4.40;2.13;;;24.10;99.90;;;;;;5115971;28;20020;-53
2023/04/04 07:08:16;;;;;;;3.13;1.80;;;24.10;99.90;;;;;;5117863;27;20062;-54
2023/04/04 07:10:41;;;;;;;2.47;1.98;;;24.10;99.90;;;;;;5127229;27;20043;-54
2023/04/04 07:13:08;;;;;;;5.78;2.10;;;24.10;99.90;;;;;;5115760;28;20022;-54
2023/04/04 07:15:34;;;;;;;3.70;2.25;;;24.10;99.90;;;;;;5123280;27;20015;-55
2023/04/04 07:18:00;;;;;;;3.38;1.83;;;24.10;99.90;;;;;;5121707;27;20022;-53
2023/04/04 07:20:27;;;;;;;3.80;1.90;;;24.10;99.90;;;;;;5115786;28;20540;-53
2023/04/04 07:22:53;;;;;;;3.22;1.90;;;24.10;99.90;;;;;;5102963;28;20059;-54
2023/04/04 07:25:18;;;;;;;5.10;1.80;;;24.10;99.90;;;;;;5114782;28;20047;-54
2023/04/04 07:27:45;;;;;;;4.03;2.03;;;24.10;99.90;;;;;;5115308;28;20377;-54
2023/04/04 07:30:11;;;;;;;3.75;2.15;;;24.10;99.90;;;;;;5101678;28;20035;-55
2023/04/04 07:32:37;;;;;;;2.08;1.60;;;24.10;99.90;;;;;;5115501;28;20072;-55
2023/04/04 07:35:05;;;;;;;4.25;2.63;;;24.10;99.90;;;;;;5113896;28;20488;-55
2023/04/04 07:37:32;;;;;;;3.70;1.70;;;24.10;99.90;;;;;;5114078;28;20031;-54
2023/04/04 07:39:58;;;;;;;2.58;1.77;;;24.10;99.90;;;;;;5114985;28;20015;-54
2023/04/04 07:42:24;;;;;;;3.72;1.90;;;24.10;99.90;;;;;;5115261;28;20026;-58
2023/04/04 07:44:53;;;;;;;4.60;2.03;;;24.10;99.90;;;;;;5114913;28;20020;-56
2023/04/04 07:47:20;;;;;;;3.83;1.52;;;24.10;99.90;;;;;;5115202;28;20024;-55
2023/04/04 07:49:46;;;;;;;3.83;2.22;;;24.10;99.90;;;;;;5114930;28;20518;-55
2023/04/04 07:52:12;;;;;;;4.07;1.63;;;24.10;99.90;;;;;;5114209;28;20051;-55
2023/04/04 07:54:39;;;;;;;4.32;1.90;;;24.10;99.90;;;;;;5102802;28;20024;-54
2023/04/04 07:57:05;;;;;;;3.47;1.70;;;24.10;99.90;;;;;;5113313;28;20019;-54
2023/04/04 07:59:32;;;;;;;3.85;2.30;;;24.20;99.90;;;;;;5113830;28;20055;-54
2023/04/04 08:01:57;;;;;;;2.97;1.92;;;24.10;99.90;;;;;;5114842;28;20505;-54
2023/04/04 08:04:23;;;;;;;6.28;2.42;;;24.10;99.90;;;;;;5114966;28;20036;-54
2023/04/04 08:06:49;;;;;;;3.42;2.03;;;24.20;99.90;;;;;;5112702;28;20429;-54
2023/04/04 08:09:15;;;;;;;3.92;1.70;;;24.20;99.90;;;;;;5103511;28;20118;-54
2023/04/04 08:11:41;;;;;;;3.22;2.22;;;24.20;99.90;;;;;;5114415;28;20015;-54
2023/04/04 08:14:10;;;;;;;3.63;2.05;;;24.20;99.90;;;;;;5106070;28;20028;-54
2023/04/04 08:16:37;;;;;;;4.10;2.03;;;24.20;99.90;;;;;;5108810;28;20023;-54
2023/04/04 08:19:03;;;;;;;3.85;2.15;;;24.20;99.90;;;;;;5113439;28;20077;-54
2023/04/04 08:21:29;;;;;;;2.65;1.95;;;24.20;99.90;;;;;;5114476;28;20042;-56
2023/04/04 08:23:55;;;;;;;4.03;2.17;;;24.20;99.90;;;;;;5114236;28;20028;-56
2023/04/04 08:26:21;;;;;;;4.03;2.20;;;24.20;99.90;;;;;;5103246;28;20088;-55
2023/04/04 08:28:47;;;;;;;3.70;2.45;;;24.20;99.90;;;;;;5111970;28;20450;-55
2023/04/04 08:31:13;;;;;;;4.13;2.58;;;24.30;99.90;;;;;;5114155;28;20038;-56
2023/04/04 08:33:39;;;;;;;3.22;2.20;;;24.30;99.90;;;;;;5108823;28;20012;-55
2023/04/04 08:36:05;;;;;;;5.03;2.58;;;24.30;99.90;;;;;;5106379;28;20051;-55
2023/04/04 08:38:31;;;;;;;4.57;2.40;;;24.30;99.90;;;;;;5113856;28;20030;-55
2023/04/04 08:40:57;;;;;;;5.40;2.58;;;24.20;99.90;;;;;;5112724;28;20027;-58
2023/04/04 08:43:24;;;;;;;5.38;2.53;;;24.30;99.90;;;;;;5113767;28;20383;-55
2023/04/04 08:45:53;;;;;;;3.15;2.17;;;24.30;99.90;;;;;;5113889;28;20015;-55
2023/04/04 08:48:20;;;;;;;5.28;3.05;;;24.30;99.90;;;;;;5113777;28;20028;-55
2023/04/04 08:50:46;;;;;;;5.30;2.47;;;24.30;99.90;;;;;;5113611;28;20023;-56
2023/04/04 08:53:14;;;;;;;4.97;2.53;;;24.30;99.90;;;;;;5111917;28;20030;-55
2023/04/04 08:55:41;;;;;;;4.53;2.47;;;24.30;99.90;;;;;;5102073;28;20027;-54
2023/04/04 08:58:07;;;;;;;4.57;2.53;;;24.30;99.90;;;;;;5113652;28;20039;-54
2023/04/04 09:00:33;;;;;;;4.63;2.00;;;24.30;99.90;;;;;;5121311;27;20321;-54
2023/04/04 09:03:19;;;;;;;3.30;2.33;;;24.30;99.90;;;;;;5119871;27;20072;-54
2023/04/04 09:05:45;;;;;;;3.65;2.20;;;24.30;99.90;;;;;;5113559;28;20024;-53
2023/04/04 09:08:12;;;;;;;4.03;2.57;;;24.30;99.90;;;;;;5099891;28;20016;-54
2023/04/04 09:10:42;;;;;;;3.95;2.03;;;24.30;99.90;;;;;;5113610;28;20302;-54
2023/04/04 09:13:09;;;;;;;5.82;2.63;;;24.30;99.90;;;;;;5113217;28;20031;-55
2023/04/04 09:15:40;;;;;;;3.78;2.70;;;24.30;99.90;;;;;;5113654;28;20042;-53
2023/04/04 09:18:05;;;;;;;4.68;2.10;;;24.30;99.90;;;;;;5113498;28;20031;-54
2023/04/04 09:20:42;;;;;;;5.00;2.60;;;24.30;99.90;;;;;;5093592;28;20032;-56
2023/04/04 09:23:16;;;;;;;4.30;2.43;;;24.30;99.90;;;;;;5107215;28;20023;-54
2023/04/04 09:25:54;;;;;;;5.60;2.78;;;24.30;99.90;;;;;;5113230;28;20506;-55
2023/04/04 09:28:21;;;;;;;6.97;2.53;;;24.40;99.90;;;;;;5112723;28;20468;-56
2023/04/04 09:30:48;;;;;;;5.68;2.22;;;24.40;99.90;;;;;;5112870;28;20106;-54
2023/04/04 09:33:15;;;;;;;8.07;2.95;;;24.30;99.90;;;;;;5112894;28;20019;-55
2023/04/04 09:35:54;;;;;;;6.32;3.20;;;24.40;99.90;;;;;;5113187;28;20028;-54
2023/04/04 09:38:22;;;;;;;3.42;2.28;;;24.40;99.90;;;;;;5113965;27;20379;-54
2023/04/04 09:40:49;;;;;;;5.93;2.47;;;24.40;99.90;;;;;;5125236;27;20098;-55
2023/04/04 09:43:16;;;;;;;4.55;2.63;;;24.40;99.90;;;;;;5112324;28;20020;-54
2023/04/04 09:45:44;;;;;;;4.07;2.30;;;24.40;99.90;;;;;;5112935;28;20023;-54
2023/04/04 09:48:10;;;;;;;4.75;2.63;;;24.40;99.90;;;;;;5112190;28;20034;-55
2023/04/04 09:50:44;;;;;;;3.88;2.00;;;24.40;99.90;;;;;;5112882;28;20030;-54
2023/04/04 09:53:16;;;;;;;4.97;2.70;;;24.40;99.90;;;;;;5112724;28;20185;-54
2023/04/04 09:55:52;;;;;;;3.72;2.22;;;24.40;99.90;;;;;;5103691;28;20102;-55
2023/04/04 09:58:28;;;;;;;3.97;2.08;;;24.40;99.90;;;;;;5107588;28;20110;-55
2023/04/04 10:01:00;;;;;;;5.13;2.53;;;24.40;99.90;;;;;;5103966;28;20059;-55
2023/04/04 10:03:27;;;;;;;3.67;2.95;;;24.50;99.90;;;;;;5112571;28;20072;-55
2023/04/04 10:05:59;;;;;;;5.70;2.38;;;24.50;99.90;;;;;;5112614;28;20030;-57
2023/04/04 10:08:27;;;;;;;6.20;2.45;;;24.50;99.90;;;;;;5112367;28;20023;-55
2023/04/04 10:11:05;;;;;;;7.20;2.63;;;24.50;99.90;;;;;;5112538;28;20470;-55
2023/04/04 10:13:39;;;;;;;4.70;2.30;;;24.50;99.90;;;;;;5098851;28;20019;-55
2023/04/04 10:16:05;;;;;;;9.15;2.17;;;24.50;99.90;;;;;;5110277;28;20088;-53
2023/04/04 10:18:35;;;;;;;12.20;1.92;;;24.50;99.90;;;;;;5112201;28;20037;-54
2023/04/04 10:21:03;;;;;;;9.05;1.88;;;24.50;99.90;;;;;;5111030;28;20032;-52
2023/04/04 10:23:29;;;;;;;7.28;1.80;;;24.50;99.90;;;;;;5112396;28;20019;-52
2023/04/04 10:25:58;;;;;;;8.40;2.20;;;24.30;99.90;;;;;;5112236;28;20030;-52
2023/04/04 10:28:25;;;;;;;10.52;2.97;;;24.20;99.90;;;;;;5111715;28;21084;-52
2023/04/04 10:31:03;;;;;;;10.10;2.25;;;24.20;99.90;;;;;;5109933;28;20054;-49
2023/04/04 10:33:40;;;;;;;10.55;1.63;;;24.10;99.90;;;;;;5098746;28;20479;-50
2023/04/04 10:36:07;;;;;;;;;;;24.00;99.90;;;;;;5112938;28;20035;-51
2023/04/04 10:38:44;;;;;;;8.00;1.85;;;23.90;99.90;;;;;;5112082;28;19930;-55
2023/04/04 10:41:12;;;;;;;8.55;1.40;;;23.80;99.90;;;;;;5112161;28;20020;-54
2023/04/04 10:43:46;;;;;;;8.43;1.65;;;23.80;99.90;;;;;;5111281;28;20028;-54
2023/04/04 10:46:16;;;;;;;5.32;1.13;;;23.80;99.90;;;;;;5112139;28;20024;-55
2023/04/04 10:48:43;;;;;;;3.78;1.02;;;23.70;99.90;;;;;;5126795;28;20023;-55
2023/04/04 10:51:11;;;;;;;6.53;1.42;;;23.80;99.90;;;;;;5125472;28;20023;-56
2023/04/04 10:53:38;;;;;;;5.95;1.23;;;23.80;99.90;;;;;;5110610;28;20388;-55
2023/04/04 10:56:04;;;;;;;;;;;23.80;99.90;;;;;;5112398;28;20024;-53
2023/04/04 10:58:30;;;;;;;6.28;1.50;;;23.90;99.90;;;;;;5110806;28;20003;-50
2023/04/04 11:00:58;;;;;;;6.25;1.60;;;23.90;99.90;;;;;;5110065;28;20047;-50
2023/04/04 11:03:24;;;;;;;7.28;1.60;;;23.90;99.90;;;;;;5109027;28;20067;-54
2023/04/04 11:05:54;;;;;;;3.95;1.42;;;24.00;99.90;;;;;;5118427;28;20463;-54
2023/04/04 11:08:25;;;;;;;6.45;2.05;;;24.00;99.90;;;;;;5101585;27;20024;-52
2023/04/04 11:10:52;;;;;;;8.95;2.20;;;24.00;99.90;;;;;;5100459;28;20027;-52
2023/04/04 11:13:34;;;;;;;16.08;2.72;;;24.10;99.90;;;;;;5111332;28;20031;-52
2023/04/04 11:16:14;;;;;;;12.25;2.42;;;24.10;99.90;;;;;;5111690;28;20107;-53
2023/04/04 11:18:44;;;;;;;5.68;2.75;;;24.10;99.90;;;;;;5111578;28;20035;-53
2023/04/04 11:21:25;;;;;;;8.98;3.05;;;24.20;99.90;;;;;;5111815;28;20043;-53
2023/04/04 11:23:51;;;;;;;11.13;3.15;;;24.20;99.90;;;;;;5110457;28;20031;-49
2023/04/04 11:26:33;;;;;;;13.15;2.30;;;24.20;99.90;;;;;;5111609;28;20020;-57
2023/04/04 11:29:03;;;;;;;7.30;2.67;;;24.20;99.90;;;;;;5108089;28;20119;-49
2023/04/04 11:31:33;;;;;;;9.48;4.00;;;24.10;99.90;;;;;;5094922;28;20027;-57
2023/04/04 11:34:10;;;;;;;7.70;3.22;;;24.00;99.90;;;;;;5102119;28;20168;-48
2023/04/04 11:36:35;;;;;;;8.60;3.53;;;24.00;99.90;;;;;;5115133;28;20121;-50
2023/04/04 11:39:19;;;;;;;13.93;4.43;;;23.90;99.90;;;;;;5115142;28;20499;-49
2023/04/04 11:41:51;;;;;;;17.63;4.75;;;23.80;99.90;;;;;;5114829;28;20487;-54
2023/04/04 11:44:18;;;;;;;18.55;6.40;;;23.80;99.90;;;;;;5115253;28;20028;-49
2023/04/04 11:46:47;;;;;;;8.90;4.78;;;23.70;99.90;;;;;;5114888;28;20016;-51
2023/04/04 11:49:14;;;;;;;9.18;2.53;;;23.70;99.90;;;;;;5115096;28;20040;-50
2023/04/04 11:51:41;;;;;;;11.45;4.00;;;23.70;99.90;;;;;;5115095;28;20016;-51
2023/04/04 11:54:16;;;;;;;13.02;2.83;;;23.60;99.90;;;;;;5123368;27;20088;-52
2023/04/04 11:56:45;;;;;;;22.27;3.25;;;23.50;99.90;;;;;;5101946;27;20479;-54
2023/04/04 11:59:19;;;;;;;9.27;3.15;;;23.40;99.90;;;;;;5105349;28;20478;-55
2023/04/04 12:01:45;;;;;;;10.23;4.13;;;23.40;99.90;;;;;;5115005;28;20510;-54
2023/04/04 12:04:11;;;;;;;21.13;8.32;;;23.30;99.90;;;;;;5115104;28;20126;-54
2023/04/04 12:06:37;;;;;;;8.15;3.28;;;23.30;99.90;;;;;;5100568;28;20523;-47
2023/04/04 12:09:04;;;;;;;11.55;5.05;;;23.20;99.90;;;;;;5100663;28;20027;-49
2023/04/04 12:11:33;;;;;;;13.98;4.63;;;23.20;99.90;;;;;;5113249;28;20024;-49
2023/04/04 12:14:00;;;;;;;10.90;4.95;;;23.20;99.90;;;;;;5114568;28;20019;-49
2023/04/04 12:16:27;;;;;;;7.38;3.05;;;23.20;99.90;;;;;;5114553;28;20023;-50
2023/04/04 12:18:53;;;;;;;8.55;4.20;;;23.20;99.90;;;;;;5110201;28;20386;-47
2023/04/04 12:21:19;;;;;;;7.53;3.45;;;23.20;99.90;;;;;;5114482;28;20051;-49
2023/04/04 12:23:48;;;;;;;7.35;3.13;;;23.20;99.90;;;;;;5114612;28;20121;-49
2023/04/04 12:26:16;;;;;;;9.90;3.75;;;23.10;99.90;;;;;;5113695;28;20027;-49
2023/04/04 12:28:44;;;;;;;10.85;3.50;;;23.10;99.90;;;;;;5113318;28;20028;-49
2023/04/04 12:31:10;;;;;;;;;;;23.10;99.90;;;;;;5113757;28;20379;-49
2023/04/04 12:33:36;;;;;;;8.32;2.35;;;23.10;99.90;;;;;;5113140;28;19904;-49
2023/04/04 12:36:04;;;;;;;10.52;2.03;;;23.10;99.90;;;;;;5112158;28;20360;-49
2023/04/04 12:38:30;;;;;;;12.45;3.05;;;23.10;99.90;;;;;;5112875;28;20012;-49
2023/04/04 12:40:56;;;;;;;10.98;2.90;;;23.10;99.90;;;;;;5108887;28;20051;-49
2023/04/04 12:43:26;;;;;;;10.05;2.20;;;23.10;99.90;;;;;;5111275;28;20476;-49
2023/04/04 12:45:55;;;;;;;5.60;2.45;;;23.10;99.90;;;;;;5113916;28;20049;-49
2023/04/04 12:48:27;;;;;;;6.90;1.67;;;23.10;99.90;;;;;;5112816;28;20050;-49
2023/04/04 12:50:55;;;;;;;10.70;3.80;;;23.10;99.90;;;;;;5112867;28;20028;-49
2023/04/04 12:53:28;;;;;;;8.52;2.55;;;23.10;99.90;;;;;;5113005;28;20027;-50